Time;durP1;ratioP1;P1;durP2;ratioP2;P2;SDS_P1;SDS_P2;PMS_P1;PMS_P2;Temp;Humidity;BMP_temperature;BMP_pressure;BME280_temperature;BME280_humidity;BME280_pressure;Samples;Min_cycle;Max_cycle;Signal;HPM_P1;HPM_P2
2021/04/18 00:00:00;;;;;;;6.80;3.30;;;5.50;99.90;;;;;;5019875;28;20072;-62
2021/04/18 00:02:25;;;;;;;12.15;3.88;;;5.50;99.90;;;;;;5016992;28;20120;-62
2021/04/18 00:04:52;;;;;;;10.27;3.72;;;5.50;99.90;;;;;;5014389;28;20045;-62
2021/04/18 00:07:17;;;;;;;8.75;3.90;;;5.50;99.90;;;;;;5021210;28;20026;-62
2021/04/18 00:09:44;;;;;;;7.55;3.15;;;5.40;99.90;;;;;;5018697;28;20041;-62
2021/04/18 00:12:11;;;;;;;9.98;4.07;;;5.40;99.90;;;;;;5018013;28;20037;-62
2021/04/18 00:14:37;;;;;;;6.47;3.30;;;5.50;99.90;;;;;;5019217;28;20571;-62
2021/04/18 00:17:03;;;;;;;9.50;3.97;;;5.50;99.90;;;;;;5021779;28;20120;-62
2021/04/18 00:19:33;;;;;;;10.43;3.85;;;5.40;99.90;;;;;;5018289;28;20056;-62
2021/04/18 00:21:59;;;;;;;11.65;4.35;;;5.40;99.90;;;;;;5015778;28;20053;-62
2021/04/18 00:24:25;;;;;;;9.43;3.83;;;5.30;99.90;;;;;;5020073;28;20829;-62
2021/04/18 00:26:51;;;;;;;9.65;4.25;;;5.40;99.90;;;;;;5019333;28;20576;-62
2021/04/18 00:29:16;;;;;;;8.15;3.92;;;5.40;99.90;;;;;;5017851;28;20030;-62
2021/04/18 00:31:42;;;;;;;8.50;3.47;;;5.40;99.90;;;;;;5019552;28;20079;-62
2021/04/18 00:34:08;;;;;;;9.88;4.07;;;5.40;99.90;;;;;;5019894;28;20498;-63
2021/04/18 00:36:34;;;;;;;13.23;4.15;;;5.30;99.90;;;;;;5019928;28;20076;-62
2021/04/18 00:39:00;;;;;;;7.88;4.13;;;5.60;99.90;;;;;;5017648;28;20033;-62
2021/04/18 00:41:26;;;;;;;9.40;4.45;;;5.60;99.90;;;;;;5018552;28;20739;-62
2021/04/18 00:43:51;;;;;;;9.75;4.38;;;5.60;99.90;;;;;;5018986;28;20049;-62
2021/04/18 00:46:17;;;;;;;11.02;4.32;;;5.60;99.90;;;;;;5018507;28;20060;-62
2021/04/18 00:48:44;;;;;;;8.27;4.35;;;5.70;99.90;;;;;;5017034;28;20041;-62
2021/04/18 00:51:12;;;;;;;12.02;5.07;;;5.70;99.90;;;;;;5016281;28;20049;-62
2021/04/18 00:53:38;;;;;;;7.95;3.63;;;5.80;99.90;;;;;;5018218;28;20594;-62
2021/04/18 00:56:05;;;;;;;8.15;4.13;;;5.80;99.90;;;;;;5017893;28;20037;-62
2021/04/18 00:58:32;;;;;;;8.98;4.63;;;5.90;99.90;;;;;;5020574;28;20856;-62
2021/04/18 01:00:58;;;;;;;9.05;4.00;;;5.90;99.90;;;;;;5017291;28;20118;-62
2021/04/18 01:03:23;;;;;;;10.73;4.05;;;5.80;99.90;;;;;;5016796;28;20491;-62
2021/04/18 01:05:49;;;;;;;12.32;4.05;;;5.80;99.90;;;;;;5015277;28;20041;-62
2021/04/18 01:08:15;;;;;;;11.25;4.88;;;5.90;99.90;;;;;;5018789;28;20027;-62
2021/04/18 01:10:41;;;;;;;10.75;3.97;;;5.90;99.90;;;;;;5016322;28;20045;-62
2021/04/18 01:13:07;;;;;;;9.43;4.82;;;5.80;99.90;;;;;;5017782;28;20080;-63
2021/04/18 01:15:33;;;;;;;10.07;4.75;;;5.80;99.90;;;;;;5018256;28;20595;-62
2021/04/18 01:17:59;;;;;;;9.85;4.88;;;5.80;99.90;;;;;;5016454;28;20029;-62
2021/04/18 01:20:25;;;;;;;9.07;4.15;;;5.70;99.90;;;;;;5016646;28;20146;-62
2021/04/18 01:22:52;;;;;;;12.18;4.20;;;5.60;99.90;;;;;;5018932;28;20031;-62
2021/04/18 01:25:18;;;;;;;8.02;4.35;;;5.60;99.90;;;;;;5017136;28;20128;-62
2021/04/18 01:27:46;;;;;;;11.63;3.97;;;5.50;99.90;;;;;;5017340;28;20030;-62
2021/04/18 01:30:28;;;;;;;9.30;4.63;;;5.50;99.90;;;;;;5017195;28;20048;-62
2021/04/18 01:32:57;;;;;;;8.65;4.22;;;5.50;99.90;;;;;;5017761;28;20354;-62
2021/04/18 01:35:23;;;;;;;9.85;4.22;;;5.50;99.90;;;;;;5018796;28;20051;-62
2021/04/18 01:37:50;;;;;;;15.65;4.47;;;5.50;99.90;;;;;;5017255;28;20030;-62
2021/04/18 01:40:18;;;;;;;13.20;4.60;;;5.40;99.90;;;;;;5015316;28;20037;-62
2021/04/18 01:42:46;;;;;;;11.82;4.22;;;5.30;99.90;;;;;;5017455;28;20483;-62
2021/04/18 01:45:13;;;;;;;12.43;4.60;;;5.20;99.90;;;;;;5017851;28;20867;-63
2021/04/18 01:47:39;;;;;;;7.20;3.92;;;5.20;99.90;;;;;;5017907;28;20103;-62
2021/04/18 01:50:08;;;;;;;13.82;5.50;;;5.20;99.90;;;;;;5017990;28;20069;-62
2021/04/18 01:52:35;;;;;;;10.35;4.22;;;5.10;99.90;;;;;;5017287;28;20128;-62
2021/04/18 01:55:01;;;;;;;7.43;4.63;;;5.00;99.90;;;;;;5016809;28;20044;-62
2021/04/18 01:57:26;;;;;;;10.68;4.32;;;5.00;99.90;;;;;;5018861;28;20980;-62
2021/04/18 01:59:52;;;;;;;17.92;5.30;;;5.00;99.90;;;;;;5017693;28;20048;-62
2021/04/18 02:02:18;;;;;;;9.20;4.25;;;4.90;99.90;;;;;;5014879;28;20033;-62
2021/04/18 02:04:44;;;;;;;11.27;4.72;;;4.90;99.90;;;;;;5018085;28;20107;-63
2021/04/18 02:07:10;;;;;;;11.18;3.78;;;4.80;99.90;;;;;;5018335;28;20044;-62
2021/04/18 02:09:36;;;;;;;13.05;4.32;;;4.80;99.90;;;;;;5017052;28;20758;-62
2021/04/18 02:12:09;;;;;;;11.40;4.57;;;5.00;99.90;;;;;;5015033;28;20030;-62
2021/04/18 02:14:36;;;;;;;10.77;4.57;;;4.90;99.90;;;;;;5015316;28;20080;-62
2021/04/18 02:17:03;;;;;;;10.52;5.00;;;4.80;99.90;;;;;;5018279;28;20033;-62
2021/04/18 02:19:29;;;;;;;7.95;3.92;;;4.70;99.90;;;;;;5015437;28;20029;-62
2021/04/18 02:21:56;;;;;;;14.00;4.78;;;4.70;99.90;;;;;;5017672;28;20057;-62
2021/04/18 02:24:22;;;;;;;8.43;3.72;;;4.70;99.90;;;;;;5015035;28;20734;-62
2021/04/18 02:26:48;;;;;;;12.20;4.57;;;4.60;99.90;;;;;;5017322;28;20184;-62
2021/04/18 02:29:14;;;;;;;14.95;5.40;;;4.60;99.90;;;;;;5014997;28;20586;-62
2021/04/18 02:31:40;;;;;;;12.10;5.00;;;4.50;99.90;;;;;;5015462;28;20045;-62
2021/04/18 02:34:06;;;;;;;11.50;4.53;;;4.40;99.90;;;;;;5016677;28;20670;-62
2021/04/18 02:36:32;;;;;;;8.40;4.43;;;4.30;99.90;;;;;;5016646;28;20080;-62
2021/04/18 02:38:58;;;;;;;11.43;4.53;;;4.30;99.90;;;;;;5015295;28;20562;-62
2021/04/18 02:41:24;;;;;;;10.57;4.70;;;4.30;99.90;;;;;;5015447;28;20072;-62
2021/04/18 02:43:50;;;;;;;15.88;4.80;;;4.30;99.90;;;;;;5016319;28;20116;-62
2021/04/18 02:46:16;;;;;;;11.27;4.55;;;4.30;99.90;;;;;;5014868;28;20860;-62
2021/04/18 02:48:42;;;;;;;8.35;3.67;;;4.20;99.90;;;;;;5014612;28;20053;-62
2021/04/18 02:51:08;;;;;;;9.98;4.60;;;4.30;99.90;;;;;;5016416;28;20160;-62
2021/04/18 02:53:34;;;;;;;9.50;4.80;;;4.30;99.90;;;;;;5015910;28;20057;-62
2021/04/18 02:56:00;;;;;;;12.27;4.57;;;4.20;99.90;;;;;;5015160;28;20042;-62
2021/04/18 02:58:26;;;;;;;10.27;4.20;;;4.10;99.90;;;;;;5016587;28;20072;-62
2021/04/18 03:00:52;;;;;;;10.88;3.92;;;4.00;99.90;;;;;;5015032;28;20030;-62
2021/04/18 03:03:18;;;;;;;11.15;4.82;;;3.90;99.90;;;;;;5015163;28;20053;-62
2021/04/18 03:05:44;;;;;;;11.82;4.80;;;3.90;99.90;;;;;;5013990;28;20056;-62
2021/04/18 03:08:10;;;;;;;8.15;4.00;;;3.90;99.90;;;;;;5020781;28;20029;-62
2021/04/18 03:10:35;;;;;;;9.55;4.82;;;4.00;99.90;;;;;;5019877;28;20060;-62
2021/04/18 03:13:02;;;;;;;8.32;4.18;;;3.90;99.90;;;;;;5021023;28;20076;-62
2021/04/18 03:15:28;;;;;;;11.48;4.05;;;3.80;99.90;;;;;;5018391;28;20037;-63
2021/04/18 03:17:54;;;;;;;10.48;3.90;;;3.80;99.90;;;;;;5018567;28;20025;-63
2021/04/18 03:20:21;;;;;;;10.05;4.15;;;3.80;99.90;;;;;;5019482;28;20056;-63
2021/04/18 03:22:47;;;;;;;10.60;4.15;;;3.80;99.90;;;;;;5020228;28;20029;-63
2021/04/18 03:25:14;;;;;;;7.70;4.13;;;3.80;99.90;;;;;;5018939;28;20049;-63
2021/04/18 03:27:40;;;;;;;7.20;3.95;;;3.80;99.90;;;;;;5020267;28;20025;-63
2021/04/18 03:30:08;;;;;;;8.52;4.22;;;3.80;99.90;;;;;;5018897;28;20095;-63
2021/04/18 03:32:34;;;;;;;7.00;3.58;;;3.80;99.90;;;;;;5021289;28;20025;-63
2021/04/18 03:35:00;;;;;;;8.23;4.10;;;3.80;99.90;;;;;;5016664;28;20063;-63
2021/04/18 03:37:26;;;;;;;10.57;4.60;;;3.90;99.90;;;;;;5018269;28;20744;-63
2021/04/18 03:39:52;;;;;;;9.00;3.65;;;4.00;99.90;;;;;;5017934;28;20033;-63
2021/04/18 03:42:18;;;;;;;9.70;4.50;;;3.90;99.90;;;;;;5021556;28;20117;-63
2021/04/18 03:44:44;;;;;;;7.75;3.90;;;4.00;99.90;;;;;;5018263;28;20045;-63
2021/04/18 03:47:10;;;;;;;11.82;5.40;;;4.00;99.90;;;;;;5017783;28;20496;-63
2021/04/18 03:49:35;;;;;;;11.15;3.90;;;4.00;99.90;;;;;;5017542;28;20033;-63
2021/04/18 03:52:01;;;;;;;8.98;4.22;;;4.00;99.90;;;;;;5017458;28;20139;-63
2021/04/18 03:54:27;;;;;;;11.10;4.07;;;4.00;99.90;;;;;;5020438;28;20519;-62
2021/04/18 03:56:53;;;;;;;5.35;3.70;;;4.00;99.90;;;;;;5018589;28;20041;-63
2021/04/18 03:59:19;;;;;;;7.72;3.53;;;3.90;99.90;;;;;;5020705;28;20540;-63
2021/04/18 04:01:45;;;;;;;6.82;3.47;;;4.00;99.90;;;;;;5019848;28;20114;-62
2021/04/18 04:04:11;;;;;;;8.27;3.47;;;4.10;99.90;;;;;;5017149;28;20032;-63
2021/04/18 04:06:37;;;;;;;6.97;3.60;;;4.10;99.90;;;;;;5018159;28;20033;-63
2021/04/18 04:09:04;;;;;;;6.97;3.35;;;4.20;99.90;;;;;;5019138;28;20029;-63
2021/04/18 04:11:30;;;;;;;6.05;3.40;;;4.20;99.90;;;;;;5017677;28;20033;-64
2021/04/18 04:13:56;;;;;;;8.68;4.22;;;4.20;99.90;;;;;;5018708;28;20072;-63
2021/04/18 04:16:22;;;;;;;6.95;4.00;;;4.20;99.90;;;;;;5017203;28;20480;-63
2021/04/18 04:18:47;;;;;;;9.70;4.20;;;4.20;99.90;;;;;;5018246;28;20045;-63
2021/04/18 04:21:13;;;;;;;9.10;4.38;;;4.20;99.90;;;;;;5017134;28;20077;-63
2021/04/18 04:23:39;;;;;;;8.95;4.35;;;4.20;99.90;;;;;;5021475;28;20025;-62
2021/04/18 04:26:06;;;;;;;8.45;4.22;;;4.10;99.90;;;;;;5017833;28;20056;-63
2021/04/18 04:28:32;;;;;;;12.77;4.60;;;4.10;99.90;;;;;;5019853;28;20034;-63
2021/04/18 04:30:58;;;;;;;8.55;4.57;;;4.20;99.90;;;;;;5018757;28;20033;-63
2021/04/18 04:33:23;;;;;;;11.35;4.47;;;4.10;99.90;;;;;;5018824;28;20061;-63
2021/04/18 04:35:49;;;;;;;9.95;4.65;;;4.20;99.90;;;;;;5016546;28;20069;-63
2021/04/18 04:38:15;;;;;;;9.20;4.68;;;4.30;99.90;;;;;;5018639;28;20021;-63
2021/04/18 04:40:41;;;;;;;11.98;5.22;;;4.20;99.90;;;;;;5018308;28;20568;-63
2021/04/18 04:43:07;;;;;;;8.55;4.40;;;4.20;99.90;;;;;;5020048;28;20661;-63
2021/04/18 04:45:33;;;;;;;9.15;4.75;;;4.20;99.90;;;;;;5016593;28;20041;-63
2021/04/18 04:47:59;;;;;;;10.35;4.90;;;4.20;99.90;;;;;;5018636;28;20037;-63
2021/04/18 04:50:24;;;;;;;8.15;4.32;;;4.20;99.90;;;;;;5017017;28;20037;-63
2021/04/18 04:52:50;;;;;;;10.25;4.47;;;4.20;99.90;;;;;;5019255;28;20040;-62
2021/04/18 04:55:16;;;;;;;12.43;5.05;;;4.30;99.90;;;;;;5017184;28;20029;-63
2021/04/18 04:57:42;;;;;;;12.95;4.68;;;4.30;99.90;;;;;;5017127;28;20690;-63
2021/04/18 05:00:09;;;;;;;12.50;4.53;;;4.40;99.90;;;;;;5018982;28;20121;-63
2021/04/18 05:02:35;;;;;;;9.80;4.57;;;4.40;99.90;;;;;;5016977;28;20027;-63
2021/04/18 05:05:01;;;;;;;9.30;4.55;;;4.50;99.90;;;;;;5017145;28;20396;-63
2021/04/18 05:07:26;;;;;;;7.70;4.00;;;4.50;99.90;;;;;;5015850;28;20036;-63
2021/04/18 05:09:52;;;;;;;9.55;4.78;;;4.50;99.90;;;;;;5017096;28;20029;-63
2021/04/18 05:12:18;;;;;;;11.20;4.68;;;4.70;99.90;;;;;;5016156;28;20033;-63
2021/04/18 05:14:44;;;;;;;9.82;4.60;;;4.80;99.90;;;;;;5016305;28;20140;-63
2021/04/18 05:17:10;;;;;;;10.73;4.53;;;4.90;99.90;;;;;;5016796;28;20461;-63
2021/04/18 05:19:35;;;;;;;8.73;4.28;;;4.90;99.90;;;;;;5015931;28;20398;-63
2021/04/18 05:22:01;;;;;;;9.55;4.40;;;5.10;99.90;;;;;;5016369;28;20046;-63
2021/04/18 05:24:27;;;;;;;12.55;4.32;;;5.20;99.90;;;;;;5014344;28;20544;-63
2021/04/18 05:26:53;;;;;;;10.43;4.10;;;5.30;99.90;;;;;;5013500;28;20026;-64
2021/04/18 05:29:19;;;;;;;8.15;3.72;;;5.40;99.90;;;;;;5014287;28;20030;-64
2021/04/18 05:31:46;;;;;;;11.52;3.65;;;5.50;99.90;;;;;;5014661;28;20033;-63
2021/04/18 05:34:12;;;;;;;8.95;4.45;;;5.60;99.90;;;;;;5015766;28;20022;-63
2021/04/18 05:36:38;;;;;;;10.65;4.20;;;5.60;99.90;;;;;;5015865;28;20033;-63
2021/04/18 05:39:08;;;;;;;9.88;4.40;;;5.70;99.90;;;;;;5017544;28;20076;-63
2021/04/18 05:41:35;;;;;;;7.68;3.70;;;5.70;99.90;;;;;;5013407;28;20480;-64
2021/04/18 05:44:01;;;;;;;9.80;4.75;;;5.80;99.90;;;;;;5017778;28;20171;-63
2021/04/18 05:46:27;;;;;;;6.80;4.00;;;5.80;99.90;;;;;;5013588;28;20049;-64
2021/04/18 05:48:53;;;;;;;9.80;4.15;;;5.90;99.90;;;;;;5016804;28;20106;-63
2021/04/18 05:51:19;;;;;;;7.38;3.92;;;6.00;99.90;;;;;;5013193;28;20058;-64
2021/04/18 05:53:45;;;;;;;6.10;3.70;;;6.00;99.90;;;;;;5012016;28;20037;-64
2021/04/18 05:56:10;;;;;;;7.68;3.88;;;6.00;99.90;;;;;;5012820;28;20107;-65
2021/04/18 05:58:36;;;;;;;7.82;3.70;;;6.10;99.90;;;;;;5014290;28;20083;-65
2021/04/18 06:01:02;;;;;;;11.00;3.55;;;6.20;99.90;;;;;;5014037;28;20693;-64
2021/04/18 06:03:28;;;;;;;6.60;3.45;;;6.30;99.90;;;;;;5014449;28;20040;-64
2021/04/18 06:05:54;;;;;;;8.43;3.58;;;6.20;99.90;;;;;;5013763;28;20509;-63
2021/04/18 06:08:20;;;;;;;8.63;3.35;;;6.20;99.90;;;;;;5014584;28;20021;-64
2021/04/18 06:10:45;;;;;;;6.25;3.35;;;6.30;99.90;;;;;;5009504;28;20033;-64
2021/04/18 06:13:11;;;;;;;9.32;3.50;;;6.40;99.90;;;;;;5016053;28;20552;-63
2021/04/18 06:15:37;;;;;;;10.13;3.42;;;6.50;99.90;;;;;;5013374;28;20428;-63
2021/04/18 06:18:03;;;;;;;15.15;3.42;;;6.60;99.90;;;;;;5006716;28;20615;-64
2021/04/18 06:20:29;;;;;;;6.60;3.70;;;6.80;99.90;;;;;;5012856;28;20060;-63
2021/04/18 06:22:55;;;;;;;7.35;3.65;;;7.10;99.90;;;;;;5014912;28;20033;-64
2021/04/18 06:25:20;;;;;;;6.15;2.85;;;7.30;99.90;;;;;;5007010;28;20475;-62
2021/04/18 06:27:46;;;;;;;8.18;3.22;;;7.50;99.90;;;;;;5011098;28;20033;-70
2021/04/18 06:30:13;;;;;;;18.08;3.97;;;7.70;99.90;;;;;;5009397;28;20767;-67
2021/04/18 06:32:39;;;;;;;7.40;3.30;;;7.90;99.90;;;;;;5011409;28;20141;-67
2021/04/18 06:35:06;;;;;;;18.05;3.67;;;8.10;99.90;;;;;;5012923;28;20029;-68
2021/04/18 06:37:33;;;;;;;7.93;3.63;;;8.40;99.90;;;;;;5013230;28;20036;-67
2021/04/18 06:39:59;;;;;;;9.50;3.75;;;8.70;99.90;;;;;;5008536;28;20038;-67
2021/04/18 06:42:26;;;;;;;9.63;3.83;;;9.00;99.90;;;;;;5014824;28;20055;-67
2021/04/18 06:44:52;;;;;;;8.00;3.78;;;9.30;99.90;;;;;;5016952;28;20572;-67
2021/04/18 06:47:18;;;;;;;8.18;4.00;;;9.30;99.90;;;;;;5019716;28;20064;-67
2021/04/18 06:49:44;;;;;;;6.28;4.13;;;9.40;99.90;;;;;;5017052;28;20588;-68
2021/04/18 06:52:12;;;;;;;7.18;3.80;;;9.60;99.90;;;;;;5015326;28;20056;-68
2021/04/18 06:54:38;;;;;;;8.43;3.75;;;9.70;99.90;;;;;;5017060;28;20393;-67
2021/04/18 06:57:04;;;;;;;5.88;3.45;;;9.90;99.90;;;;;;5017329;28;20044;-68
2021/04/18 06:59:29;;;;;;;6.68;4.03;;;10.40;99.90;;;;;;5018613;28;20024;-67
2021/04/18 07:01:55;;;;;;;6.82;3.65;;;10.70;99.90;;;;;;5015022;28;20041;-67
2021/04/18 07:04:22;;;;;;;5.60;3.15;;;11.10;99.90;;;;;;5018243;28;20477;-67
2021/04/18 07:06:49;;;;;;;7.07;3.30;;;11.40;99.90;;;;;;5017792;28;20038;-68
2021/04/18 07:09:18;;;;;;;8.38;3.65;;;11.70;99.90;;;;;;5018257;28;20485;-68
2021/04/18 07:12:01;;;;;;;4.93;3.17;;;11.90;99.90;;;;;;5016863;28;20045;-68
2021/04/18 07:14:28;;;;;;;12.75;2.25;;;12.10;99.90;;;;;;5018004;28;20160;-68
2021/04/18 07:17:06;;;;;;;4.38;2.45;;;12.20;99.90;;;;;;5017554;28;20033;-68
2021/04/18 07:19:32;;;;;;;6.00;2.05;;;12.30;99.90;;;;;;5008340;28;20021;-68
2021/04/18 07:21:58;;;;;;;3.22;1.88;;;12.60;99.90;;;;;;5016776;28;20060;-67
2021/04/18 07:24:25;;;;;;;5.38;1.88;;;12.80;99.90;;;;;;5015698;28;20477;-66
2021/04/18 07:27:02;;;;;;;4.22;1.88;;;13.00;99.90;;;;;;5018582;28;20037;-67
2021/04/18 07:29:30;;;;;;;5.35;2.53;;;13.10;99.90;;;;;;5017554;28;20068;-67
2021/04/18 07:32:00;;;;;;;4.22;1.75;;;13.20;99.90;;;;;;5017061;28;20026;-66
2021/04/18 07:34:37;;;;;;;6.40;2.25;;;13.50;99.90;;;;;;5016933;28;20053;-67
2021/04/18 07:37:11;;;;;;;5.63;1.95;;;13.60;99.90;;;;;;5018705;28;20025;-67
2021/04/18 07:39:58;;;;;;;4.78;2.10;;;13.60;99.90;;;;;;5016058;28;20060;-67
2021/04/18 07:42:37;;;;;;;8.10;2.13;;;13.80;99.90;;;;;;5017086;28;20033;-68
2021/04/18 07:45:06;;;;;;;2.92;1.60;;;13.90;99.90;;;;;;5018034;28;20044;-67
2021/04/18 07:47:35;;;;;;;6.28;1.67;;;14.10;99.90;;;;;;5017873;28;20029;-67
2021/04/18 07:50:09;;;;;;;5.25;2.30;;;14.30;99.90;;;;;;5015608;28;20045;-67
2021/04/18 07:52:39;;;;;;;5.65;1.65;;;14.40;99.90;;;;;;5019085;28;20031;-68
2021/04/18 07:55:05;;;;;;;;;;;14.40;99.60;;;;;;5022884;28;20021;-67
2021/04/18 07:57:31;;;;;;;2.55;1.52;;;14.70;99.90;;;;;;5018300;28;19927;-67
2021/04/18 07:59:58;;;;;;;4.18;1.50;;;15.00;99.80;;;;;;5020111;28;20061;-67
2021/04/18 08:02:25;;;;;;;4.70;1.60;;;15.30;98.40;;;;;;5020708;28;20172;-67
2021/04/18 08:04:54;;;;;;;3.83;1.33;;;15.30;96.60;;;;;;5020789;28;20034;-68
2021/04/18 08:07:21;;;;;;;3.78;1.40;;;15.40;95.60;;;;;;5021290;28;20036;-68
2021/04/18 08:09:47;;;;;;;4.22;1.83;;;15.70;96.10;;;;;;5020002;28;20052;-67
2021/04/18 08:12:14;;;;;;;3.83;1.42;;;15.90;95.00;;;;;;5019477;28;21832;-66
2021/04/18 08:14:47;;;;;;;3.53;1.42;;;16.00;91.50;;;;;;5018740;28;20163;-67
2021/04/18 08:17:15;;;;;;;4.88;1.50;;;16.00;91.90;;;;;;5018664;28;20805;-66
2021/04/18 08:19:58;;;;;;;2.88;1.40;;;15.90;90.30;;;;;;5019198;28;20146;-66
2021/04/18 08:22:25;;;;;;;3.42;1.10;;;15.90;86.30;;;;;;5019050;28;20041;-66
2021/04/18 08:25:10;;;;;;;5.22;1.70;;;16.10;88.30;;;;;;5018099;28;20079;-67
2021/04/18 08:27:57;;;;;;;2.28;1.50;;;16.40;92.00;;;;;;5021020;28;20537;-66
2021/04/18 08:30:23;;;;;;;2.67;1.52;;;16.70;86.10;;;;;;5020468;28;20034;-67
2021/04/18 08:32:50;;;;;;;2.22;1.45;;;16.90;82.00;;;;;;5019900;28;20029;-67
2021/04/18 08:35:22;;;;;;;3.15;1.73;;;16.90;84.90;;;;;;5019958;28;20113;-66
2021/04/18 08:38:13;;;;;;;4.38;1.75;;;16.90;85.70;;;;;;5021444;28;20025;-67
2021/04/18 08:40:40;;;;;;;3.38;1.20;;;17.40;85.60;;;;;;5019841;28;20519;-67
2021/04/18 08:43:19;;;;;;;4.05;1.50;;;17.60;77.00;;;;;;5020137;28;20037;-66
2021/04/18 08:45:49;;;;;;;3.20;1.03;;;17.70;75.50;;;;;;5019029;28;20793;-66
2021/04/18 08:48:15;;;;;;;3.83;1.20;;;17.70;75.00;;;;;;5019700;28;20940;-66
2021/04/18 08:51:00;;;;;;;1.23;0.82;;;17.40;75.40;;;;;;5011240;28;20038;-67
2021/04/18 08:53:27;;;;;;;1.70;1.17;;;17.60;74.80;;;;;;5019054;28;20033;-67
2021/04/18 08:55:59;;;;;;;3.00;1.08;;;17.50;76.90;;;;;;5020561;28;20032;-67
2021/04/18 08:58:37;;;;;;;2.47;1.30;;;17.70;71.80;;;;;;5018791;28;20090;-67
2021/04/18 09:01:13;;;;;;;2.75;1.17;;;17.60;71.80;;;;;;5019819;28;20033;-67
2021/04/18 09:03:55;;;;;;;3.58;1.30;;;17.50;72.80;;;;;;5018417;28;20025;-67
2021/04/18 09:06:32;;;;;;;3.38;1.40;;;17.70;74.10;;;;;;5018046;28;20038;-67
2021/04/18 09:08:59;;;;;;;3.20;1.30;;;18.00;73.10;;;;;;5019995;28;20083;-67
2021/04/18 09:11:25;;;;;;;3.63;1.63;;;18.20;72.50;;;;;;5020576;28;20381;-67
2021/04/18 09:14:00;;;;;;;4.50;1.88;;;18.20;71.40;;;;;;5019655;28;20033;-67
2021/04/18 09:16:27;;;;;;;3.28;1.10;;;18.20;70.20;;;;;;5018614;28;20171;-67
2021/04/18 09:19:13;;;;;;;3.97;1.25;;;18.50;69.40;;;;;;5019210;28;20052;-67
2021/04/18 09:21:39;;;;;;;3.63;1.17;;;18.30;68.90;;;;;;5019302;28;20049;-67
2021/04/18 09:24:05;;;;;;;3.63;1.20;;;18.60;70.90;;;;;;5018412;28;20029;-67
2021/04/18 09:26:31;;;;;;;2.10;1.20;;;18.80;70.00;;;;;;5016533;28;20780;-67
2021/04/18 09:29:11;;;;;;;4.55;1.17;;;18.90;71.80;;;;;;5020402;28;20765;-67
2021/04/18 09:32:00;;;;;;;7.03;1.48;;;18.90;67.40;;;;;;5019409;28;20045;-67
2021/04/18 09:34:26;;;;;;;3.78;1.42;;;19.20;71.00;;;;;;5014820;28;20026;-67
2021/04/18 09:36:55;;;;;;;2.22;1.20;;;19.50;70.00;;;;;;5014181;28;20041;-68
2021/04/18 09:39:26;;;;;;;3.00;1.02;;;19.50;66.40;;;;;;5017188;28;20044;-68
2021/04/18 09:41:52;;;;;;;2.75;1.60;;;19.60;65.70;;;;;;5016452;28;20488;-68
2021/04/18 09:44:39;;;;;;;1.77;1.02;;;19.40;64.50;;;;;;5016607;28;20029;-68
2021/04/18 09:47:08;;;;;;;2.10;1.20;;;19.50;65.50;;;;;;5016997;28;20057;-67
2021/04/18 09:49:52;;;;;;;3.57;1.47;;;19.60;65.60;;;;;;5015224;28;20025;-68
2021/04/18 09:52:25;;;;;;;2.60;1.13;;;19.70;66.80;;;;;;5017515;28;20446;-68
2021/04/18 09:54:51;;;;;;;3.45;1.10;;;19.70;63.90;;;;;;5017059;28;20037;-68
2021/04/18 09:57:23;;;;;;;3.95;1.70;;;19.80;63.70;;;;;;5014390;28;20026;-68
2021/04/18 10:00:08;;;;;;;2.63;1.30;;;19.60;66.70;;;;;;5013187;28;20037;-68
2021/04/18 10:02:34;;;;;;;4.35;1.45;;;20.00;65.90;;;;;;5012116;28;20036;-68
2021/04/18 10:05:27;;;;;;;3.28;1.80;;;20.00;64.50;;;;;;5012739;28;20033;-68
2021/04/18 10:08:28;;;;;;;2.53;1.55;;;19.80;65.50;;;;;;5014847;28;20047;-68
2021/04/18 10:11:18;;;;;;;2.83;1.55;;;20.10;65.50;;;;;;5015702;28;20033;-67
2021/04/18 10:13:51;;;;;;;3.30;1.38;;;20.10;64.60;;;;;;5014937;28;20086;-68
2021/04/18 10:16:21;;;;;;;5.43;1.58;;;19.90;63.70;;;;;;5017269;28;20092;-68
2021/04/18 10:19:05;;;;;;;5.78;1.58;;;19.70;62.20;;;;;;5015019;28;20029;-68
2021/04/18 10:21:31;;;;;;;3.78;1.40;;;19.90;63.90;;;;;;5015405;28;20076;-68
2021/04/18 10:23:57;;;;;;;3.20;1.40;;;19.90;67.80;;;;;;5012395;28;20096;-68
2021/04/18 10:26:24;;;;;;;7.22;1.70;;;20.00;65.00;;;;;;5007306;28;20125;-68
2021/04/18 10:28:52;;;;;;;7.55;1.85;;;19.90;64.40;;;;;;5008510;28;20623;-68
2021/04/18 10:31:23;;;;;;;7.60;1.90;;;19.90;65.90;;;;;;5012396;28;20071;-68
2021/04/18 10:33:49;;;;;;;5.10;1.20;;;20.00;62.90;;;;;;5013098;28;20439;-68
2021/04/18 10:36:16;;;;;;;4.47;1.83;;;20.40;64.40;;;;;;5016189;28;20029;-68
2021/04/18 10:38:42;;;;;;;2.33;1.48;;;19.80;62.70;;;;;;5011718;28;20053;-68
2021/04/18 10:41:09;;;;;;;2.25;1.40;;;19.90;67.50;;;;;;5008731;28;20040;-68
2021/04/18 10:43:35;;;;;;;2.97;1.63;;;20.00;63.70;;;;;;5010523;28;20025;-67
2021/04/18 10:46:02;;;;;;;3.53;1.80;;;20.00;64.90;;;;;;5014834;28;20575;-68
2021/04/18 10:48:28;;;;;;;6.55;1.30;;;20.40;67.10;;;;;;5012853;28;20136;-68
2021/04/18 10:50:54;;;;;;;4.18;1.75;;;20.50;64.60;;;;;;5005567;28;20025;-69
2021/04/18 10:53:21;;;;;;;4.07;1.80;;;20.60;65.70;;;;;;5012935;28;20166;-68
2021/04/18 10:55:47;;;;;;;3.95;1.40;;;20.70;67.40;;;;;;5003115;28;20037;-68
2021/04/18 10:58:15;;;;;;;10.50;2.10;;;20.50;60.60;;;;;;5014319;28;20033;-69
2021/04/18 11:00:42;;;;;;;2.88;1.73;;;20.80;66.20;;;;;;5015276;28;20041;-68
2021/04/18 11:03:08;;;;;;;4.75;1.58;;;20.80;66.50;;;;;;5009073;28;20029;-68
2021/04/18 11:05:34;;;;;;;6.20;1.60;;;20.90;67.70;;;;;;5012851;28;20531;-68
2021/04/18 11:08:00;;;;;;;3.13;1.50;;;21.00;64.40;;;;;;5012261;28;20563;-68
2021/04/18 11:10:25;;;;;;;5.28;1.65;;;21.30;65.00;;;;;;5012041;28;20099;-68
2021/04/18 11:12:51;;;;;;;3.50;1.40;;;21.10;63.90;;;;;;5010583;28;20071;-68
2021/04/18 11:15:17;;;;;;;6.78;1.88;;;21.10;68.80;;;;;;5013798;28;20029;-68
2021/04/18 11:17:44;;;;;;;4.30;1.60;;;21.60;64.80;;;;;;5011500;28;20061;-68
2021/04/18 11:20:12;;;;;;;3.63;1.70;;;22.00;65.00;;;;;;5013595;28;20056;-69
2021/04/18 11:22:39;;;;;;;3.88;1.73;;;21.90;64.10;;;;;;5010047;28;20037;-69
2021/04/18 11:25:10;;;;;;;2.20;1.10;;;21.60;62.80;;;;;;5015736;28;20045;-69
2021/04/18 11:27:38;;;;;;;6.60;1.45;;;21.30;63.90;;;;;;5019830;28;20120;-68
2021/04/18 11:30:09;;;;;;;6.18;2.00;;;20.90;66.20;;;;;;5018888;28;20048;-68
2021/04/18 11:32:36;;;;;;;3.83;1.77;;;21.10;63.60;;;;;;5020152;28;20026;-68
2021/04/18 11:35:03;;;;;;;3.25;1.52;;;21.00;68.50;;;;;;5017077;28;20112;-69
2021/04/18 11:37:29;;;;;;;4.03;1.65;;;21.20;63.80;;;;;;5021380;28;20034;-68
2021/04/18 11:39:56;;;;;;;4.55;1.45;;;21.10;62.20;;;;;;5013699;28;20030;-68
2021/04/18 11:42:22;;;;;;;6.20;3.17;;;21.10;65.80;;;;;;5018267;28;20711;-68
2021/04/18 11:44:48;;;;;;;5.18;2.17;;;21.10;62.00;;;;;;5013993;28;20171;-66
2021/04/18 11:47:13;;;;;;;5.30;1.98;;;20.70;62.70;;;;;;5011531;28;20029;-67
2021/04/18 11:49:39;;;;;;;5.80;2.35;;;20.50;64.30;;;;;;5012209;28;20030;-67
2021/04/18 11:52:05;;;;;;;5.72;2.45;;;20.70;66.20;;;;;;5011930;28;20033;-66
2021/04/18 11:54:31;;;;;;;5.65;2.25;;;20.50;61.30;;;;;;5016620;28;20034;-67
2021/04/18 11:56:57;;;;;;;2.10;1.48;;;20.20;64.60;;;;;;5016130;28;20152;-66
2021/04/18 11:59:23;;;;;;;6.60;1.67;;;20.40;68.80;;;;;;5017573;28;20037;-67
2021/04/18 12:01:48;;;;;;;4.78;1.83;;;21.00;66.90;;;;;;5016640;28;20473;-66
2021/04/18 12:04:14;;;;;;;5.90;2.30;;;21.30;64.50;;;;;;5013439;28;20029;-66
2021/04/18 12:06:40;;;;;;;6.30;2.45;;;21.40;63.90;;;;;;5014763;28;20037;-67
2021/04/18 12:09:06;;;;;;;6.10;1.90;;;21.00;65.30;;;;;;5018641;28;20072;-67
2021/04/18 12:11:33;;;;;;;5.28;1.73;;;21.30;64.60;;;;;;5012219;28;20033;-67
2021/04/18 12:14:00;;;;;;;6.20;1.70;;;21.00;62.20;;;;;;5017968;28;20025;-67
2021/04/18 12:16:26;;;;;;;4.88;1.77;;;20.80;63.20;;;;;;5016810;28;20033;-66
2021/04/18 12:18:52;;;;;;;4.68;1.63;;;21.00;64.70;;;;;;5018330;28;20045;-67
2021/04/18 12:21:18;;;;;;;4.15;1.80;;;21.00;62.90;;;;;;5015830;28;20255;-67
2021/04/18 12:23:44;;;;;;;4.57;2.15;;;21.10;66.90;;;;;;5012930;28;20137;-67
2021/04/18 12:26:10;;;;;;;6.57;2.30;;;21.30;65.20;;;;;;5014926;28;20033;-67
2021/04/18 12:28:37;;;;;;;4.43;2.20;;;21.40;63.70;;;;;;5013156;28;20033;-68
2021/04/18 12:31:03;;;;;;;4.38;2.03;;;21.20;64.00;;;;;;5015015;28;20069;-67
2021/04/18 12:33:31;;;;;;;5.75;2.05;;;21.20;66.90;;;;;;5016809;28;20022;-67
2021/04/18 12:35:57;;;;;;;7.65;2.53;;;21.30;63.90;;;;;;5017736;28;20068;-67
2021/04/18 12:38:23;;;;;;;4.55;2.00;;;21.40;64.80;;;;;;5016652;28;20623;-67
2021/04/18 12:40:49;;;;;;;5.20;2.33;;;21.40;63.60;;;;;;5020064;28;20153;-67
2021/04/18 12:43:15;;;;;;;8.30;2.10;;;21.50;62.70;;;;;;5014995;28;20478;-66
2021/04/18 12:45:41;;;;;;;4.65;2.30;;;21.60;66.10;;;;;;5010919;28;20041;-67
2021/04/18 12:48:07;;;;;;;4.53;2.20;;;21.60;64.80;;;;;;5012347;28;20029;-67
2021/04/18 12:50:33;;;;;;;6.32;3.17;;;21.40;61.10;;;;;;5005186;28;20112;-66
2021/04/18 12:52:58;;;;;;;7.40;2.95;;;20.80;63.70;;;;;;5015632;28;20971;-66